sensor_id;sensor_type;location;lat;lon;timestamp;P1;durP1;ratioP1;P2;durP2;ratioP2
20830;SDS011;10576;53.556;9.868;2023-03-21T00:00:38;17.05;;;15.32;;
20830;SDS011;10576;53.556;9.868;2023-03-21T00:03:04;17.08;;;15.27;;
20830;SDS011;10576;53.556;9.868;2023-03-21T00:05:30;17.70;;;15.40;;
20830;SDS011;10576;53.556;9.868;2023-03-21T00:07:56;17.35;;;15.48;;
20830;SDS011;10576;53.556;9.868;2023-03-21T00:10:21;17.23;;;15.45;;
20830;SDS011;10576;53.556;9.868;2023-03-21T00:12:47;19.25;;;17.13;;
20830;SDS011;10576;53.556;9.868;2023-03-21T00:15:22;20.27;;;16.67;;
20830;SDS011;10576;53.556;9.868;2023-03-21T00:17:50;19.08;;;16.67;;
20830;SDS011;10576;53.556;9.868;2023-03-21T00:20:22;20.55;;;17.40;;
20830;SDS011;10576;53.556;9.868;2023-03-21T00:22:48;20.58;;;18.17;;
20830;SDS011;10576;53.556;9.868;2023-03-21T00:25:13;21.70;;;18.13;;
20830;SDS011;10576;53.556;9.868;2023-03-21T00:27:39;19.83;;;17.70;;
20830;SDS011;10576;53.556;9.868;2023-03-21T00:30:05;21.70;;;18.70;;
20830;SDS011;10576;53.556;9.868;2023-03-21T00:32:31;21.42;;;19.00;;
20830;SDS011;10576;53.556;9.868;2023-03-21T00:34:57;21.10;;;18.57;;
20830;SDS011;10576;53.556;9.868;2023-03-21T00:37:23;20.48;;;18.35;;
20830;SDS011;10576;53.556;9.868;2023-03-21T00:39:48;22.48;;;19.48;;
20830;SDS011;10576;53.556;9.868;2023-03-21T00:42:14;22.38;;;19.40;;
20830;SDS011;10576;53.556;9.868;2023-03-21T00:44:40;22.42;;;19.77;;
20830;SDS011;10576;53.556;9.868;2023-03-21T00:47:07;22.75;;;19.95;;
20830;SDS011;10576;53.556;9.868;2023-03-21T00:49:33;24.45;;;21.75;;
20830;SDS011;10576;53.556;9.868;2023-03-21T00:52:03;23.92;;;20.58;;
20830;SDS011;10576;53.556;9.868;2023-03-21T00:54:30;22.60;;;20.20;;
20830;SDS011;10576;53.556;9.868;2023-03-21T00:57:00;24.58;;;20.95;;
20830;SDS011;10576;53.556;9.868;2023-03-21T00:59:27;24.08;;;21.25;;
20830;SDS011;10576;53.556;9.868;2023-03-21T01:01:52;24.38;;;21.10;;
20830;SDS011;10576;53.556;9.868;2023-03-21T01:04:19;25.50;;;20.83;;
20830;SDS011;10576;53.556;9.868;2023-03-21T01:06:45;26.20;;;22.27;;
20830;SDS011;10576;53.556;9.868;2023-03-21T01:09:16;25.40;;;21.30;;
20830;SDS011;10576;53.556;9.868;2023-03-21T01:11:43;26.38;;;22.50;;
20830;SDS011;10576;53.556;9.868;2023-03-21T01:14:10;24.70;;;21.67;;
20830;SDS011;10576;53.556;9.868;2023-03-21T01:16:37;26.50;;;22.05;;
20830;SDS011;10576;53.556;9.868;2023-03-21T01:19:03;24.80;;;21.77;;
20830;SDS011;10576;53.556;9.868;2023-03-21T01:21:31;26.27;;;21.90;;
20830;SDS011;10576;53.556;9.868;2023-03-21T01:23:57;27.25;;;22.83;;
20830;SDS011;10576;53.556;9.868;2023-03-21T01:26:23;27.25;;;22.35;;
20830;SDS011;10576;53.556;9.868;2023-03-21T01:28:49;28.00;;;22.55;;
20830;SDS011;10576;53.556;9.868;2023-03-21T01:31:15;26.85;;;22.83;;
20830;SDS011;10576;53.556;9.868;2023-03-21T01:33:42;30.35;;;23.45;;
20830;SDS011;10576;53.556;9.868;2023-03-21T01:36:08;27.73;;;24.10;;
20830;SDS011;10576;53.556;9.868;2023-03-21T01:38:40;28.67;;;23.55;;
20830;SDS011;10576;53.556;9.868;2023-03-21T01:41:06;27.38;;;23.65;;
20830;SDS011;10576;53.556;9.868;2023-03-21T01:43:39;28.13;;;23.40;;
20830;SDS011;10576;53.556;9.868;2023-03-21T01:49:11;28.10;;;23.77;;
20830;SDS011;10576;53.556;9.868;2023-03-21T01:51:46;28.53;;;23.60;;
20830;SDS011;10576;53.556;9.868;2023-03-21T01:54:19;28.63;;;24.13;;
20830;SDS011;10576;53.556;9.868;2023-03-21T01:56:49;28.38;;;24.05;;
20830;SDS011;10576;53.556;9.868;2023-03-21T01:59:23;28.38;;;23.88;;
20830;SDS011;10576;53.556;9.868;2023-03-21T02:01:50;30.20;;;24.65;;
20830;SDS011;10576;53.556;9.868;2023-03-21T02:04:17;29.02;;;24.13;;
20830;SDS011;10576;53.556;9.868;2023-03-21T02:06:55;29.33;;;24.75;;
20830;SDS011;10576;53.556;9.868;2023-03-21T02:09:25;28.45;;;23.67;;
20830;SDS011;10576;53.556;9.868;2023-03-21T02:11:55;29.80;;;24.38;;
20830;SDS011;10576;53.556;9.868;2023-03-21T02:14:22;30.35;;;24.88;;
20830;SDS011;10576;53.556;9.868;2023-03-21T02:28:23;28.25;;;24.00;;
20830;SDS011;10576;53.556;9.868;2023-03-21T02:31:02;30.60;;;24.95;;
20830;SDS011;10576;53.556;9.868;2023-03-21T02:37:13;30.50;;;24.58;;
20830;SDS011;10576;53.556;9.868;2023-03-21T02:44:34;29.15;;;24.95;;
20830;SDS011;10576;53.556;9.868;2023-03-21T02:47:10;30.80;;;25.92;;
20830;SDS011;10576;53.556;9.868;2023-03-21T02:49:57;31.03;;;25.73;;
20830;SDS011;10576;53.556;9.868;2023-03-21T02:52:31;31.58;;;25.60;;
20830;SDS011;10576;53.556;9.868;2023-03-21T02:54:59;30.08;;;25.52;;
20830;SDS011;10576;53.556;9.868;2023-03-21T02:57:29;31.70;;;25.77;;
20830;SDS011;10576;53.556;9.868;2023-03-21T02:59:55;32.08;;;26.42;;
20830;SDS011;10576;53.556;9.868;2023-03-21T03:02:24;30.75;;;25.95;;
20830;SDS011;10576;53.556;9.868;2023-03-21T03:04:51;33.87;;;26.57;;
20830;SDS011;10576;53.556;9.868;2023-03-21T03:10:25;32.83;;;27.15;;
20830;SDS011;10576;53.556;9.868;2023-03-21T03:18:57;37.33;;;27.50;;
20830;SDS011;10576;53.556;9.868;2023-03-21T03:24:00;33.92;;;27.05;;
20830;SDS011;10576;53.556;9.868;2023-03-21T03:29:14;36.63;;;27.88;;
20830;SDS011;10576;53.556;9.868;2023-03-21T03:31:46;33.53;;;27.87;;
20830;SDS011;10576;53.556;9.868;2023-03-21T03:34:18;35.95;;;27.63;;
20830;SDS011;10576;53.556;9.868;2023-03-21T03:36:46;34.35;;;27.15;;
20830;SDS011;10576;53.556;9.868;2023-03-21T03:39:20;34.20;;;27.42;;
20830;SDS011;10576;53.556;9.868;2023-03-21T03:41:58;34.67;;;28.45;;
20830;SDS011;10576;53.556;9.868;2023-03-21T03:44:30;35.95;;;27.98;;
20830;SDS011;10576;53.556;9.868;2023-03-21T03:46:58;34.28;;;27.85;;
20830;SDS011;10576;53.556;9.868;2023-03-21T03:49:30;34.97;;;27.48;;
20830;SDS011;10576;53.556;9.868;2023-03-21T03:52:09;33.60;;;27.70;;
20830;SDS011;10576;53.556;9.868;2023-03-21T03:54:45;35.17;;;27.17;;
20830;SDS011;10576;53.556;9.868;2023-03-21T03:57:13;32.55;;;27.20;;
20830;SDS011;10576;53.556;9.868;2023-03-21T03:59:40;34.35;;;26.67;;
20830;SDS011;10576;53.556;9.868;2023-03-21T04:02:08;33.22;;;26.40;;
20830;SDS011;10576;53.556;9.868;2023-03-21T04:04:34;37.15;;;28.05;;
20830;SDS011;10576;53.556;9.868;2023-03-21T04:07:00;36.20;;;28.00;;
20830;SDS011;10576;53.556;9.868;2023-03-21T04:09:27;33.77;;;26.93;;
20830;SDS011;10576;53.556;9.868;2023-03-21T04:11:54;35.67;;;27.33;;
20830;SDS011;10576;53.556;9.868;2023-03-21T04:14:20;37.80;;;28.60;;
20830;SDS011;10576;53.556;9.868;2023-03-21T04:16:47;34.58;;;28.05;;
20830;SDS011;10576;53.556;9.868;2023-03-21T04:19:13;36.40;;;28.38;;
20830;SDS011;10576;53.556;9.868;2023-03-21T04:21:39;37.45;;;27.45;;
20830;SDS011;10576;53.556;9.868;2023-03-21T04:24:05;36.03;;;27.95;;
20830;SDS011;10576;53.556;9.868;2023-03-21T04:26:32;35.97;;;28.13;;
20830;SDS011;10576;53.556;9.868;2023-03-21T04:29:00;36.53;;;27.95;;
20830;SDS011;10576;53.556;9.868;2023-03-21T04:31:27;35.03;;;27.90;;
20830;SDS011;10576;53.556;9.868;2023-03-21T04:33:55;34.85;;;27.25;;
20830;SDS011;10576;53.556;9.868;2023-03-21T04:36:23;36.15;;;28.00;;
20830;SDS011;10576;53.556;9.868;2023-03-21T04:38:51;34.78;;;27.60;;
20830;SDS011;10576;53.556;9.868;2023-03-21T04:41:17;37.53;;;28.00;;
20830;SDS011;10576;53.556;9.868;2023-03-21T04:43:43;35.30;;;27.97;;
20830;SDS011;10576;53.556;9.868;2023-03-21T04:46:09;36.88;;;28.73;;
20830;SDS011;10576;53.556;9.868;2023-03-21T04:48:35;36.77;;;28.53;;
20830;SDS011;10576;53.556;9.868;2023-03-21T04:51:01;35.95;;;28.50;;
20830;SDS011;10576;53.556;9.868;2023-03-21T04:53:27;36.25;;;28.70;;
20830;SDS011;10576;53.556;9.868;2023-03-21T04:55:53;36.37;;;28.03;;
20830;SDS011;10576;53.556;9.868;2023-03-21T04:58:18;37.07;;;28.83;;
20830;SDS011;10576;53.556;9.868;2023-03-21T05:00:44;37.23;;;28.43;;
20830;SDS011;10576;53.556;9.868;2023-03-21T05:03:10;36.35;;;28.48;;
20830;SDS011;10576;53.556;9.868;2023-03-21T05:05:43;38.05;;;29.65;;
20830;SDS011;10576;53.556;9.868;2023-03-21T05:08:09;37.63;;;29.60;;
20830;SDS011;10576;53.556;9.868;2023-03-21T05:10:36;38.25;;;29.23;;
20830;SDS011;10576;53.556;9.868;2023-03-21T05:13:01;39.63;;;29.45;;
20830;SDS011;10576;53.556;9.868;2023-03-21T05:15:27;36.90;;;28.55;;
20830;SDS011;10576;53.556;9.868;2023-03-21T05:17:53;37.30;;;28.90;;
20830;SDS011;10576;53.556;9.868;2023-03-21T05:20:19;37.10;;;29.30;;
20830;SDS011;10576;53.556;9.868;2023-03-21T05:22:45;37.63;;;28.95;;
20830;SDS011;10576;53.556;9.868;2023-03-21T05:25:14;37.03;;;28.27;;
20830;SDS011;10576;53.556;9.868;2023-03-21T05:27:42;36.67;;;28.23;;
20830;SDS011;10576;53.556;9.868;2023-03-21T05:32:36;35.07;;;28.77;;
20830;SDS011;10576;53.556;9.868;2023-03-21T05:35:02;31.85;;;26.92;;
20830;SDS011;10576;53.556;9.868;2023-03-21T05:37:28;35.60;;;28.08;;
20830;SDS011;10576;53.556;9.868;2023-03-21T05:39:54;34.03;;;27.15;;
20830;SDS011;10576;53.556;9.868;2023-03-21T05:42:20;34.03;;;27.73;;
20830;SDS011;10576;53.556;9.868;2023-03-21T05:44:46;33.40;;;27.58;;
20830;SDS011;10576;53.556;9.868;2023-03-21T05:47:12;33.63;;;27.67;;
20830;SDS011;10576;53.556;9.868;2023-03-21T05:49:39;31.98;;;26.38;;
20830;SDS011;10576;53.556;9.868;2023-03-21T05:52:04;30.80;;;26.03;;
20830;SDS011;10576;53.556;9.868;2023-03-21T05:54:30;30.97;;;26.10;;
20830;SDS011;10576;53.556;9.868;2023-03-21T05:56:56;29.80;;;25.08;;
20830;SDS011;10576;53.556;9.868;2023-03-21T05:59:21;29.08;;;24.88;;
20830;SDS011;10576;53.556;9.868;2023-03-21T06:01:48;29.52;;;25.17;;
20830;SDS011;10576;53.556;9.868;2023-03-21T06:04:14;29.95;;;25.25;;
20830;SDS011;10576;53.556;9.868;2023-03-21T06:06:40;28.05;;;24.50;;
20830;SDS011;10576;53.556;9.868;2023-03-21T06:09:05;28.70;;;25.07;;
20830;SDS011;10576;53.556;9.868;2023-03-21T06:11:32;28.97;;;24.77;;
20830;SDS011;10576;53.556;9.868;2023-03-21T06:14:00;28.25;;;24.50;;
20830;SDS011;10576;53.556;9.868;2023-03-21T06:16:26;27.92;;;24.70;;
20830;SDS011;10576;53.556;9.868;2023-03-21T06:18:55;29.17;;;23.98;;
20830;SDS011;10576;53.556;9.868;2023-03-21T06:21:21;28.33;;;24.97;;
20830;SDS011;10576;53.556;9.868;2023-03-21T06:23:47;27.90;;;24.23;;
20830;SDS011;10576;53.556;9.868;2023-03-21T06:26:15;28.38;;;23.80;;
20830;SDS011;10576;53.556;9.868;2023-03-21T06:28:43;27.88;;;24.70;;
20830;SDS011;10576;53.556;9.868;2023-03-21T06:31:09;28.40;;;23.70;;
20830;SDS011;10576;53.556;9.868;2023-03-21T06:33:35;27.88;;;24.02;;
20830;SDS011;10576;53.556;9.868;2023-03-21T06:36:00;28.45;;;24.23;;
20830;SDS011;10576;53.556;9.868;2023-03-21T06:38:26;29.40;;;24.60;;
20830;SDS011;10576;53.556;9.868;2023-03-21T06:40:52;30.13;;;24.50;;
20830;SDS011;10576;53.556;9.868;2023-03-21T06:43:18;27.80;;;23.67;;
20830;SDS011;10576;53.556;9.868;2023-03-21T06:45:43;28.10;;;24.80;;
20830;SDS011;10576;53.556;9.868;2023-03-21T06:48:09;29.30;;;25.17;;
20830;SDS011;10576;53.556;9.868;2023-03-21T06:50:35;29.60;;;25.45;;
20830;SDS011;10576;53.556;9.868;2023-03-21T06:53:01;31.27;;;26.17;;
20830;SDS011;10576;53.556;9.868;2023-03-21T06:55:26;30.88;;;24.67;;
20830;SDS011;10576;53.556;9.868;2023-03-21T06:57:53;30.48;;;25.02;;
20830;SDS011;10576;53.556;9.868;2023-03-21T07:00:22;32.28;;;26.42;;
20830;SDS011;10576;53.556;9.868;2023-03-21T07:02:48;30.88;;;25.42;;
20830;SDS011;10576;53.556;9.868;2023-03-21T07:05:15;32.47;;;25.50;;
20830;SDS011;10576;53.556;9.868;2023-03-21T07:07:41;32.58;;;26.30;;
20830;SDS011;10576;53.556;9.868;2023-03-21T07:10:07;32.63;;;26.13;;
20830;SDS011;10576;53.556;9.868;2023-03-21T07:12:34;32.28;;;26.00;;
20830;SDS011;10576;53.556;9.868;2023-03-21T07:15:03;32.70;;;26.30;;
20830;SDS011;10576;53.556;9.868;2023-03-21T07:17:31;32.08;;;24.88;;
20830;SDS011;10576;53.556;9.868;2023-03-21T07:19:56;34.50;;;26.58;;
20830;SDS011;10576;53.556;9.868;2023-03-21T07:22:22;33.63;;;26.77;;
20830;SDS011;10576;53.556;9.868;2023-03-21T07:24:48;35.27;;;27.53;;
20830;SDS011;10576;53.556;9.868;2023-03-21T07:27:14;33.20;;;26.80;;
20830;SDS011;10576;53.556;9.868;2023-03-21T07:29:40;36.20;;;27.70;;
20830;SDS011;10576;53.556;9.868;2023-03-21T07:32:07;39.10;;;28.58;;
20830;SDS011;10576;53.556;9.868;2023-03-21T07:34:37;36.30;;;27.98;;
20830;SDS011;10576;53.556;9.868;2023-03-21T07:37:03;36.83;;;29.27;;
20830;SDS011;10576;53.556;9.868;2023-03-21T07:39:31;40.78;;;29.52;;
20830;SDS011;10576;53.556;9.868;2023-03-21T07:41:58;41.13;;;29.33;;
20830;SDS011;10576;53.556;9.868;2023-03-21T07:44:24;39.95;;;29.95;;
20830;SDS011;10576;53.556;9.868;2023-03-21T07:46:51;41.05;;;30.00;;
20830;SDS011;10576;53.556;9.868;2023-03-21T07:49:16;45.20;;;31.30;;
20830;SDS011;10576;53.556;9.868;2023-03-21T07:51:42;42.63;;;30.00;;
20830;SDS011;10576;53.556;9.868;2023-03-21T07:54:08;44.87;;;31.83;;
20830;SDS011;10576;53.556;9.868;2023-03-21T07:56:33;45.83;;;30.80;;
20830;SDS011;10576;53.556;9.868;2023-03-21T07:59:00;44.50;;;30.95;;
20830;SDS011;10576;53.556;9.868;2023-03-21T08:01:26;45.57;;;32.23;;
20830;SDS011;10576;53.556;9.868;2023-03-21T08:03:51;46.00;;;31.73;;
20830;SDS011;10576;53.556;9.868;2023-03-21T08:06:18;43.88;;;30.95;;
20830;SDS011;10576;53.556;9.868;2023-03-21T08:08:44;42.70;;;31.15;;
20830;SDS011;10576;53.556;9.868;2023-03-21T08:11:10;46.50;;;31.53;;
20830;SDS011;10576;53.556;9.868;2023-03-21T08:13:36;48.47;;;31.45;;
20830;SDS011;10576;53.556;9.868;2023-03-21T08:16:02;44.30;;;30.57;;
20830;SDS011;10576;53.556;9.868;2023-03-21T08:18:28;45.80;;;30.50;;
20830;SDS011;10576;53.556;9.868;2023-03-21T08:20:54;42.53;;;30.13;;
20830;SDS011;10576;53.556;9.868;2023-03-21T08:23:21;46.17;;;30.20;;
20830;SDS011;10576;53.556;9.868;2023-03-21T08:25:54;45.50;;;30.20;;
20830;SDS011;10576;53.556;9.868;2023-03-21T08:28:21;45.38;;;30.42;;
20830;SDS011;10576;53.556;9.868;2023-03-21T08:30:47;43.75;;;30.08;;
20830;SDS011;10576;53.556;9.868;2023-03-21T08:33:15;44.63;;;29.35;;
20830;SDS011;10576;53.556;9.868;2023-03-21T08:35:42;44.97;;;30.25;;
20830;SDS011;10576;53.556;9.868;2023-03-21T08:38:08;41.42;;;28.65;;
20830;SDS011;10576;53.556;9.868;2023-03-21T08:40:34;43.83;;;29.20;;
20830;SDS011;10576;53.556;9.868;2023-03-21T08:43:00;40.70;;;28.50;;
20830;SDS011;10576;53.556;9.868;2023-03-21T08:45:26;41.38;;;28.30;;
20830;SDS011;10576;53.556;9.868;2023-03-21T08:47:52;36.13;;;28.02;;
20830;SDS011;10576;53.556;9.868;2023-03-21T08:50:19;38.30;;;27.73;;
20830;SDS011;10576;53.556;9.868;2023-03-21T08:52:46;38.55;;;27.65;;
20830;SDS011;10576;53.556;9.868;2023-03-21T08:55:13;41.03;;;28.48;;
20830;SDS011;10576;53.556;9.868;2023-03-21T08:57:39;43.75;;;27.73;;
20830;SDS011;10576;53.556;9.868;2023-03-21T09:00:06;42.15;;;28.45;;
20830;SDS011;10576;53.556;9.868;2023-03-21T09:02:42;41.55;;;28.75;;
20830;SDS011;10576;53.556;9.868;2023-03-21T09:05:10;44.28;;;29.00;;
20830;SDS011;10576;53.556;9.868;2023-03-21T09:07:39;39.75;;;28.15;;
20830;SDS011;10576;53.556;9.868;2023-03-21T09:10:05;43.10;;;29.05;;
20830;SDS011;10576;53.556;9.868;2023-03-21T09:12:34;45.40;;;28.57;;
20830;SDS011;10576;53.556;9.868;2023-03-21T09:15:00;44.67;;;29.15;;
20830;SDS011;10576;53.556;9.868;2023-03-21T09:17:29;41.65;;;28.75;;
20830;SDS011;10576;53.556;9.868;2023-03-21T09:19:55;46.22;;;30.00;;
20830;SDS011;10576;53.556;9.868;2023-03-21T09:22:24;45.60;;;29.17;;
20830;SDS011;10576;53.556;9.868;2023-03-21T09:24:51;46.38;;;30.08;;
20830;SDS011;10576;53.556;9.868;2023-03-21T09:27:17;42.55;;;28.50;;
20830;SDS011;10576;53.556;9.868;2023-03-21T09:29:47;41.15;;;29.40;;
20830;SDS011;10576;53.556;9.868;2023-03-21T09:32:13;45.35;;;29.50;;
20830;SDS011;10576;53.556;9.868;2023-03-21T09:34:39;44.47;;;29.77;;
20830;SDS011;10576;53.556;9.868;2023-03-21T09:37:08;46.63;;;29.20;;
20830;SDS011;10576;53.556;9.868;2023-03-21T09:39:41;46.40;;;29.63;;
20830;SDS011;10576;53.556;9.868;2023-03-21T09:45:07;44.42;;;29.50;;
20830;SDS011;10576;53.556;9.868;2023-03-21T09:47:44;43.92;;;29.92;;
20830;SDS011;10576;53.556;9.868;2023-03-21T09:53:23;46.63;;;29.27;;
20830;SDS011;10576;53.556;9.868;2023-03-21T09:56:01;42.67;;;28.50;;
20830;SDS011;10576;53.556;9.868;2023-03-21T09:58:53;39.92;;;28.50;;
20830;SDS011;10576;53.556;9.868;2023-03-21T10:01:26;42.20;;;27.88;;
20830;SDS011;10576;53.556;9.868;2023-03-21T10:04:06;40.22;;;27.40;;
20830;SDS011;10576;53.556;9.868;2023-03-21T10:06:36;36.00;;;26.40;;
20830;SDS011;10576;53.556;9.868;2023-03-21T10:11:45;35.40;;;26.38;;
20830;SDS011;10576;53.556;9.868;2023-03-21T10:14:21;37.15;;;25.83;;
20830;SDS011;10576;53.556;9.868;2023-03-21T10:19:40;31.98;;;24.20;;
20830;SDS011;10576;53.556;9.868;2023-03-21T10:22:10;32.60;;;24.43;;
20830;SDS011;10576;53.556;9.868;2023-03-21T10:24:36;35.45;;;25.80;;
20830;SDS011;10576;53.556;9.868;2023-03-21T10:27:02;36.03;;;26.00;;
20830;SDS011;10576;53.556;9.868;2023-03-21T10:29:35;31.77;;;23.58;;
20830;SDS011;10576;53.556;9.868;2023-03-21T10:32:10;32.75;;;24.33;;
20830;SDS011;10576;53.556;9.868;2023-03-21T10:34:47;33.28;;;24.15;;
20830;SDS011;10576;53.556;9.868;2023-03-21T10:37:19;29.48;;;22.48;;
20830;SDS011;10576;53.556;9.868;2023-03-21T10:39:47;29.40;;;22.60;;
20830;SDS011;10576;53.556;9.868;2023-03-21T10:42:32;30.17;;;22.10;;
20830;SDS011;10576;53.556;9.868;2023-03-21T10:45:00;32.08;;;23.30;;
20830;SDS011;10576;53.556;9.868;2023-03-21T10:47:27;33.03;;;23.38;;
20830;SDS011;10576;53.556;9.868;2023-03-21T10:50:16;35.42;;;24.05;;
20830;SDS011;10576;53.556;9.868;2023-03-21T10:52:49;31.42;;;23.27;;
20830;SDS011;10576;53.556;9.868;2023-03-21T10:57:58;30.10;;;23.02;;
20830;SDS011;10576;53.556;9.868;2023-03-21T11:00:33;31.08;;;24.38;;
20830;SDS011;10576;53.556;9.868;2023-03-21T11:03:02;34.40;;;23.90;;
20830;SDS011;10576;53.556;9.868;2023-03-21T11:05:37;34.88;;;24.25;;
20830;SDS011;10576;53.556;9.868;2023-03-21T11:08:06;32.97;;;23.88;;
20830;SDS011;10576;53.556;9.868;2023-03-21T11:10:53;35.50;;;24.88;;
20830;SDS011;10576;53.556;9.868;2023-03-21T11:13:26;36.17;;;25.23;;
20830;SDS011;10576;53.556;9.868;2023-03-21T11:16:05;36.92;;;25.42;;
20830;SDS011;10576;53.556;9.868;2023-03-21T11:18:31;37.15;;;26.02;;
20830;SDS011;10576;53.556;9.868;2023-03-21T11:21:03;36.65;;;25.95;;
20830;SDS011;10576;53.556;9.868;2023-03-21T11:23:31;35.97;;;25.60;;
20830;SDS011;10576;53.556;9.868;2023-03-21T11:25:59;38.60;;;25.17;;
20830;SDS011;10576;53.556;9.868;2023-03-21T11:28:31;37.50;;;25.35;;
20830;SDS011;10576;53.556;9.868;2023-03-21T11:30:59;33.63;;;24.08;;
20830;SDS011;10576;53.556;9.868;2023-03-21T11:33:27;34.45;;;24.83;;
20830;SDS011;10576;53.556;9.868;2023-03-21T11:36:01;36.92;;;24.00;;
20830;SDS011;10576;53.556;9.868;2023-03-21T11:38:38;30.23;;;23.55;;
20830;SDS011;10576;53.556;9.868;2023-03-21T11:41:05;33.58;;;23.73;;
20830;SDS011;10576;53.556;9.868;2023-03-21T11:43:35;30.88;;;23.98;;
20830;SDS011;10576;53.556;9.868;2023-03-21T11:48:28;33.22;;;23.17;;
20830;SDS011;10576;53.556;9.868;2023-03-21T11:50:58;31.37;;;23.00;;
20830;SDS011;10576;53.556;9.868;2023-03-21T12:10:14;27.20;;;20.55;;
20830;SDS011;10576;53.556;9.868;2023-03-21T12:15:39;23.15;;;19.23;;
20830;SDS011;10576;53.556;9.868;2023-03-21T12:18:28;25.50;;;18.60;;
20830;SDS011;10576;53.556;9.868;2023-03-21T12:21:02;25.50;;;18.25;;
20830;SDS011;10576;53.556;9.868;2023-03-21T12:31:24;23.67;;;17.65;;
20830;SDS011;10576;53.556;9.868;2023-03-21T12:34:15;21.37;;;17.00;;
20830;SDS011;10576;53.556;9.868;2023-03-21T12:39:46;20.95;;;16.30;;
20830;SDS011;10576;53.556;9.868;2023-03-21T12:42:24;19.03;;;15.90;;
20830;SDS011;10576;53.556;9.868;2023-03-21T12:45:17;18.63;;;15.20;;
20830;SDS011;10576;53.556;9.868;2023-03-21T12:47:51;18.65;;;15.32;;
20830;SDS011;10576;53.556;9.868;2023-03-21T12:50:23;17.63;;;15.23;;
20830;SDS011;10576;53.556;9.868;2023-03-21T12:52:57;19.30;;;15.13;;
20830;SDS011;10576;53.556;9.868;2023-03-21T12:55:31;18.80;;;14.68;;
20830;SDS011;10576;53.556;9.868;2023-03-21T12:58:08;17.50;;;14.60;;
20830;SDS011;10576;53.556;9.868;2023-03-21T13:00:47;16.95;;;14.55;;
20830;SDS011;10576;53.556;9.868;2023-03-21T13:05:50;15.65;;;13.82;;
20830;SDS011;10576;53.556;9.868;2023-03-21T13:08:26;17.90;;;14.43;;
20830;SDS011;10576;53.556;9.868;2023-03-21T13:11:02;15.83;;;13.90;;
20830;SDS011;10576;53.556;9.868;2023-03-21T13:13:35;16.00;;;14.15;;
20830;SDS011;10576;53.556;9.868;2023-03-21T13:21:38;18.73;;;15.20;;
20830;SDS011;10576;53.556;9.868;2023-03-21T13:26:49;17.27;;;14.07;;
20830;SDS011;10576;53.556;9.868;2023-03-21T13:30:17;15.68;;;13.32;;
20830;SDS011;10576;53.556;9.868;2023-03-21T13:34:55;17.88;;;13.50;;
20830;SDS011;10576;53.556;9.868;2023-03-21T13:37:22;17.85;;;13.98;;
20830;SDS011;10576;53.556;9.868;2023-03-21T13:39:52;16.50;;;13.57;;
20830;SDS011;10576;53.556;9.868;2023-03-21T13:42:28;15.82;;;13.25;;
20830;SDS011;10576;53.556;9.868;2023-03-21T13:44:59;14.27;;;12.27;;
20830;SDS011;10576;53.556;9.868;2023-03-21T13:50:26;14.10;;;12.55;;
20830;SDS011;10576;53.556;9.868;2023-03-21T13:55:38;16.58;;;12.77;;
20830;SDS011;10576;53.556;9.868;2023-03-21T13:58:31;15.03;;;12.17;;
20830;SDS011;10576;53.556;9.868;2023-03-21T14:03:45;14.60;;;12.77;;
20830;SDS011;10576;53.556;9.868;2023-03-21T14:06:11;14.55;;;12.82;;
20830;SDS011;10576;53.556;9.868;2023-03-21T14:08:39;15.27;;;13.02;;
20830;SDS011;10576;53.556;9.868;2023-03-21T14:11:07;14.38;;;12.50;;
20830;SDS011;10576;53.556;9.868;2023-03-21T14:13:40;14.80;;;13.13;;
20830;SDS011;10576;53.556;9.868;2023-03-21T14:16:09;15.27;;;12.60;;
20830;SDS011;10576;53.556;9.868;2023-03-21T14:18:44;16.17;;;13.00;;
20830;SDS011;10576;53.556;9.868;2023-03-21T14:21:20;15.75;;;12.98;;
20830;SDS011;10576;53.556;9.868;2023-03-21T14:23:54;16.05;;;12.88;;
20830;SDS011;10576;53.556;9.868;2023-03-21T14:26:21;15.07;;;13.10;;
20830;SDS011;10576;53.556;9.868;2023-03-21T14:28:47;13.85;;;12.45;;
20830;SDS011;10576;53.556;9.868;2023-03-21T14:31:15;15.98;;;13.38;;
20830;SDS011;10576;53.556;9.868;2023-03-21T14:33:47;16.70;;;13.70;;
20830;SDS011;10576;53.556;9.868;2023-03-21T14:36:23;15.02;;;12.85;;
20830;SDS011;10576;53.556;9.868;2023-03-21T14:39:01;15.18;;;12.93;;
20830;SDS011;10576;53.556;9.868;2023-03-21T14:41:53;14.05;;;12.55;;
20830;SDS011;10576;53.556;9.868;2023-03-21T14:44:25;14.40;;;12.65;;
20830;SDS011;10576;53.556;9.868;2023-03-21T14:49:44;14.30;;;12.80;;
20830;SDS011;10576;53.556;9.868;2023-03-21T14:52:10;17.02;;;13.35;;
20830;SDS011;10576;53.556;9.868;2023-03-21T14:54:51;15.60;;;13.32;;
20830;SDS011;10576;53.556;9.868;2023-03-21T14:57:21;15.07;;;13.18;;
20830;SDS011;10576;53.556;9.868;2023-03-21T14:59:51;14.87;;;13.20;;
20830;SDS011;10576;53.556;9.868;2023-03-21T15:02:20;15.32;;;13.25;;
20830;SDS011;10576;53.556;9.868;2023-03-21T15:04:50;18.00;;;13.70;;
20830;SDS011;10576;53.556;9.868;2023-03-21T15:07:51;15.00;;;13.18;;
20830;SDS011;10576;53.556;9.868;2023-03-21T15:10:24;16.17;;;12.45;;
20830;SDS011;10576;53.556;9.868;2023-03-21T15:12:53;13.80;;;12.25;;
20830;SDS011;10576;53.556;9.868;2023-03-21T15:15:21;16.25;;;12.38;;
20830;SDS011;10576;53.556;9.868;2023-03-21T15:17:48;14.15;;;12.57;;
20830;SDS011;10576;53.556;9.868;2023-03-21T15:20:17;15.73;;;12.13;;
20830;SDS011;10576;53.556;9.868;2023-03-21T15:22:50;14.15;;;11.93;;
20830;SDS011;10576;53.556;9.868;2023-03-21T15:25:20;14.10;;;12.65;;
20830;SDS011;10576;53.556;9.868;2023-03-21T15:27:51;14.15;;;12.63;;
20830;SDS011;10576;53.556;9.868;2023-03-21T15:30:19;14.70;;;11.95;;
20830;SDS011;10576;53.556;9.868;2023-03-21T15:32:47;13.23;;;11.70;;
20830;SDS011;10576;53.556;9.868;2023-03-21T15:35:14;13.50;;;11.90;;
20830;SDS011;10576;53.556;9.868;2023-03-21T15:37:41;13.70;;;11.68;;
20830;SDS011;10576;53.556;9.868;2023-03-21T15:40:07;14.13;;;11.37;;
20830;SDS011;10576;53.556;9.868;2023-03-21T15:42:41;12.43;;;11.18;;
20830;SDS011;10576;53.556;9.868;2023-03-21T15:50:21;12.17;;;10.83;;
20830;SDS011;10576;53.556;9.868;2023-03-21T15:52:52;12.27;;;10.73;;
20830;SDS011;10576;53.556;9.868;2023-03-21T15:55:22;11.38;;;10.27;;
20830;SDS011;10576;53.556;9.868;2023-03-21T15:57:53;11.35;;;10.15;;
20830;SDS011;10576;53.556;9.868;2023-03-21T16:00:36;11.23;;;9.77;;
20830;SDS011;10576;53.556;9.868;2023-03-21T16:03:06;11.03;;;9.70;;
20830;SDS011;10576;53.556;9.868;2023-03-21T16:05:41;11.32;;;9.70;;
20830;SDS011;10576;53.556;9.868;2023-03-21T16:08:25;11.00;;;9.48;;
20830;SDS011;10576;53.556;9.868;2023-03-21T16:10:52;10.63;;;8.95;;
20830;SDS011;10576;53.556;9.868;2023-03-21T16:13:18;10.70;;;9.02;;
20830;SDS011;10576;53.556;9.868;2023-03-21T16:15:44;9.73;;;8.70;;
20830;SDS011;10576;53.556;9.868;2023-03-21T16:18:11;11.93;;;9.57;;
20830;SDS011;10576;53.556;9.868;2023-03-21T16:20:43;10.80;;;9.30;;
20830;SDS011;10576;53.556;9.868;2023-03-21T16:23:10;11.57;;;9.68;;
20830;SDS011;10576;53.556;9.868;2023-03-21T16:25:37;11.07;;;9.30;;
20830;SDS011;10576;53.556;9.868;2023-03-21T16:28:03;11.88;;;9.32;;
20830;SDS011;10576;53.556;9.868;2023-03-21T16:30:29;10.48;;;8.88;;